Time;durP1;ratioP1;P1;durP2;ratioP2;P2;SDS_P1;SDS_P2;PMS_P1;PMS_P2;Temp;Humidity;BMP_temperature;BMP_pressure;BME280_temperature;BME280_humidity;BME280_pressure;Samples;Min_cycle;Max_cycle;Signal;HPM_P1;HPM_P2
2023/10/29 00:00:29;;;;;;;1.30;1.20;;;14.90;99.90;;;;;;5086088;28;20216;-59
2023/10/29 00:02:57;;;;;;;1.30;1.20;;;15.00;99.90;;;;;;5089042;28;20236;-60
2023/10/29 00:05:27;;;;;;;1.20;1.20;;;15.00;99.90;;;;;;5089863;28;21902;-59
2023/10/29 00:07:55;;;;;;;2.60;1.10;;;15.00;99.90;;;;;;5089741;28;20229;-59
2023/10/29 00:10:24;;;;;;;1.53;1.30;;;15.00;99.90;;;;;;5087409;28;20194;-59
2023/10/29 00:12:52;;;;;;;2.47;1.30;;;15.00;99.90;;;;;;5072245;28;20344;-59
2023/10/29 00:15:20;;;;;;;1.60;1.20;;;15.10;99.90;;;;;;5087017;28;20234;-58
2023/10/29 00:17:49;;;;;;;1.27;1.20;;;15.10;99.90;;;;;;5088469;28;20230;-59
2023/10/29 00:20:17;;;;;;;2.43;1.33;;;15.10;99.90;;;;;;5092387;28;20314;-59
2023/10/29 00:22:47;;;;;;;1.13;1.03;;;15.10;99.90;;;;;;5070113;28;20217;-59
2023/10/29 00:25:15;;;;;;;0.80;0.80;;;15.20;99.90;;;;;;5089433;28;20188;-59
2023/10/29 00:27:43;;;;;;;1.10;1.00;;;15.20;99.90;;;;;;5089946;28;20215;-60
2023/10/29 00:30:12;;;;;;;1.20;1.10;;;15.20;99.90;;;;;;5087413;28;20225;-59
2023/10/29 00:32:41;;;;;;;1.57;1.20;;;15.20;99.90;;;;;;5090461;28;20578;-61
2023/10/29 00:35:10;;;;;;;1.90;1.13;;;15.20;99.90;;;;;;5086919;28;20234;-60
2023/10/29 00:37:38;;;;;;;1.07;1.07;;;15.10;99.90;;;;;;5081164;28;20194;-58
2023/10/29 00:40:09;;;;;;;2.77;1.30;;;15.00;99.90;;;;;;5085661;28;20211;-60
2023/10/29 00:42:37;;;;;;;1.23;1.13;;;14.90;99.90;;;;;;5083070;28;20706;-59
2023/10/29 00:45:06;;;;;;;2.17;1.03;;;14.80;99.90;;;;;;5082532;28;20224;-59
2023/10/29 00:47:34;;;;;;;1.20;1.13;;;14.80;99.90;;;;;;5087065;28;20287;-59
2023/10/29 00:50:03;;;;;;;2.13;1.00;;;14.80;99.90;;;;;;5086307;28;20308;-60
2023/10/29 00:52:32;;;;;;;1.00;1.00;;;14.80;99.90;;;;;;5083599;28;20192;-57
2023/10/29 00:55:00;;;;;;;1.23;1.20;;;14.80;99.90;;;;;;5091819;28;20288;-59
2023/10/29 00:57:30;;;;;;;1.10;1.00;;;14.70;99.90;;;;;;5087705;28;20220;-59
2023/10/29 00:59:58;;;;;;;1.30;1.00;;;14.70;99.90;;;;;;5081766;28;20336;-58
2023/10/29 01:02:27;;;;;;;2.93;1.00;;;14.60;99.90;;;;;;5067606;28;20273;-59
2023/10/29 01:04:56;;;;;;;1.20;0.93;;;14.60;99.90;;;;;;5084976;28;20215;-59
2023/10/29 01:07:24;;;;;;;1.13;1.03;;;14.60;99.90;;;;;;5079404;28;20255;-59
2023/10/29 01:09:52;;;;;;;2.87;1.20;;;14.50;99.90;;;;;;5088431;28;20549;-59
2023/10/29 01:12:21;;;;;;;1.00;1.00;;;14.40;99.90;;;;;;5084750;28;20210;-58
2023/10/29 01:14:51;;;;;;;3.10;1.50;;;14.40;99.90;;;;;;5090995;28;20199;-59
2023/10/29 01:17:19;;;;;;;2.33;0.90;;;14.30;99.90;;;;;;5081991;28;20261;-59
2023/10/29 01:19:47;;;;;;;1.10;1.00;;;14.30;99.90;;;;;;5100695;28;20588;-59
2023/10/29 01:22:16;;;;;;;1.00;1.00;;;14.20;99.90;;;;;;5088612;28;21307;-59
2023/10/29 01:24:44;;;;;;;1.20;1.10;;;14.20;99.90;;;;;;5082263;28;20200;-59
2023/10/29 01:27:13;;;;;;;0.90;0.90;;;14.20;99.90;;;;;;5089267;28;20223;-59
2023/10/29 01:29:41;;;;;;;0.80;0.80;;;14.20;99.90;;;;;;5088022;28;20187;-59
2023/10/29 01:32:14;;;;;;;1.20;1.10;;;14.20;99.90;;;;;;5089292;28;20227;-58
2023/10/29 01:34:43;;;;;;;1.10;1.00;;;14.20;99.90;;;;;;5086458;28;20223;-59
2023/10/29 01:37:11;;;;;;;1.00;1.00;;;14.30;99.90;;;;;;5084926;28;20191;-58
2023/10/29 01:39:39;;;;;;;0.87;0.87;;;14.30;99.90;;;;;;5082452;28;20221;-59
2023/10/29 01:42:07;;;;;;;3.47;1.00;;;14.30;99.90;;;;;;5088512;28;20188;-59
2023/10/29 01:44:36;;;;;;;1.47;1.17;;;14.30;99.90;;;;;;5080199;28;20195;-61
2023/10/29 01:47:05;;;;;;;0.80;0.80;;;14.30;99.90;;;;;;5089573;28;20202;-59
2023/10/29 01:49:35;;;;;;;4.00;1.00;;;14.30;99.90;;;;;;5079271;28;20184;-59
2023/10/29 01:52:03;;;;;;;2.30;1.10;;;14.30;99.90;;;;;;5067303;28;20202;-59
2023/10/29 01:54:31;;;;;;;0.87;0.87;;;14.30;99.90;;;;;;5089634;28;20212;-58
2023/10/29 01:57:00;;;;;;;1.10;1.10;;;14.30;99.90;;;;;;5082477;28;20188;-58
2023/10/29 01:59:29;;;;;;;1.53;0.80;;;14.30;99.90;;;;;;5084143;28;20212;-59
2023/10/29 02:01:58;;;;;;;3.23;1.10;;;14.40;99.90;;;;;;5084567;28;20748;-60
2023/10/29 02:04:27;;;;;;;1.47;0.90;;;14.40;99.90;;;;;;5090508;28;20650;-59
2023/10/29 02:06:56;;;;;;;1.10;1.00;;;14.40;99.90;;;;;;5082856;28;20223;-59
2023/10/29 02:09:25;;;;;;;2.00;1.00;;;14.40;99.90;;;;;;5085146;28;20215;-59
2023/10/29 02:11:53;;;;;;;1.50;1.00;;;14.40;99.90;;;;;;5087392;28;20222;-59
2023/10/29 02:14:22;;;;;;;1.27;1.23;;;14.50;99.90;;;;;;5089152;28;20227;-59
2023/10/29 02:16:51;;;;;;;1.33;1.10;;;14.50;99.90;;;;;;5085466;28;20196;-59
2023/10/29 02:19:19;;;;;;;0.90;0.90;;;14.40;99.90;;;;;;5084632;28;20215;-59
2023/10/29 02:21:47;;;;;;;1.97;0.90;;;14.40;99.90;;;;;;5075936;28;20223;-58
2023/10/29 02:24:17;;;;;;;1.17;0.90;;;14.40;99.90;;;;;;5086882;28;20600;-59
2023/10/29 02:26:45;;;;;;;1.20;1.00;;;14.40;99.90;;;;;;5080727;28;20686;-59
2023/10/29 02:29:13;;;;;;;2.67;1.00;;;14.40;99.90;;;;;;5085856;28;20311;-59
2023/10/29 02:31:42;;;;;;;3.97;1.30;;;14.40;99.90;;;;;;5068379;28;20195;-59
2023/10/29 02:34:11;;;;;;;1.00;1.00;;;14.30;99.90;;;;;;5071171;28;20232;-60
2023/10/29 02:36:39;;;;;;;1.03;1.00;;;14.20;99.90;;;;;;5086144;28;20234;-59
2023/10/29 02:39:07;;;;;;;0.97;0.90;;;14.30;99.90;;;;;;5085751;28;20218;-58
2023/10/29 02:41:37;;;;;;;2.27;0.90;;;14.30;99.90;;;;;;5084226;28;20597;-58
2023/10/29 02:44:24;;;;;;;2.43;1.00;;;14.30;99.90;;;;;;5076556;28;20707;-59
2023/10/29 02:46:52;;;;;;;1.03;1.00;;;14.30;99.90;;;;;;5082134;28;20228;-59
2023/10/29 02:49:20;;;;;;;2.00;0.83;;;14.30;99.90;;;;;;5087465;28;20196;-57
2023/10/29 02:51:49;;;;;;;1.00;0.90;;;14.30;99.90;;;;;;5067654;28;20222;-59
2023/10/29 02:54:17;;;;;;;2.20;1.20;;;14.30;99.90;;;;;;5084854;28;20292;-59
2023/10/29 02:56:46;;;;;;;0.83;0.80;;;14.30;99.90;;;;;;5087394;28;20220;-58
2023/10/29 02:59:14;;;;;;;1.00;0.90;;;14.30;99.90;;;;;;5085833;28;20259;-58
2023/10/29 03:01:43;;;;;;;1.40;1.23;;;14.30;99.90;;;;;;5086681;28;20204;-59
2023/10/29 03:04:11;;;;;;;1.83;1.20;;;14.30;99.90;;;;;;5069664;28;20744;-58
2023/10/29 03:06:41;;;;;;;0.90;0.90;;;14.30;99.90;;;;;;5084591;28;20215;-58
2023/10/29 03:09:09;;;;;;;1.60;1.33;;;14.30;99.90;;;;;;5085562;28;20231;-58
2023/10/29 03:11:38;;;;;;;1.00;1.00;;;14.30;99.90;;;;;;5071828;28;20219;-58
2023/10/29 03:14:07;;;;;;;5.43;1.10;;;14.40;99.90;;;;;;5089832;28;20215;-58
2023/10/29 03:16:35;;;;;;;1.93;0.93;;;14.30;99.90;;;;;;5084276;28;20219;-59
2023/10/29 03:19:04;;;;;;;1.27;1.27;;;14.10;99.90;;;;;;5066476;28;20902;-59
2023/10/29 03:21:32;;;;;;;1.93;1.13;;;13.80;99.90;;;;;;5085297;28;20223;-59
2023/10/29 03:24:00;;;;;;;3.13;1.20;;;13.60;99.90;;;;;;5082486;28;20225;-59
2023/10/29 03:26:28;;;;;;;2.43;1.03;;;13.40;99.90;;;;;;5085244;28;20696;-59
2023/10/29 03:28:57;;;;;;;2.93;1.00;;;13.20;99.90;;;;;;5084659;28;20227;-59
2023/10/29 03:31:26;;;;;;;4.27;1.43;;;13.20;99.90;;;;;;5088293;28;20215;-58
2023/10/29 03:33:54;;;;;;;2.37;1.10;;;13.20;99.90;;;;;;5084017;28;20261;-59
2023/10/29 03:36:23;;;;;;;3.37;1.43;;;13.30;99.90;;;;;;5085207;28;20631;-59
2023/10/29 03:38:51;;;;;;;1.33;0.87;;;13.20;99.90;;;;;;5087817;28;20242;-58
2023/10/29 03:41:21;;;;;;;4.97;1.40;;;13.30;99.90;;;;;;5083306;28;20224;-59
2023/10/29 03:43:49;;;;;;;7.53;1.30;;;13.30;99.90;;;;;;5086851;28;20207;-58
2023/10/29 03:46:17;;;;;;;3.83;1.23;;;13.30;99.90;;;;;;5084140;28;20196;-58
2023/10/29 03:48:47;;;;;;;3.63;1.43;;;13.30;99.90;;;;;;5083686;28;20758;-59
2023/10/29 03:51:16;;;;;;;5.40;1.57;;;13.40;99.90;;;;;;5082816;28;20222;-59
2023/10/29 03:53:44;;;;;;;6.87;1.27;;;13.30;99.90;;;;;;5060225;28;20610;-59
2023/10/29 03:56:13;;;;;;;1.70;1.20;;;13.30;99.90;;;;;;5059811;28;20228;-59
2023/10/29 03:58:41;;;;;;;2.00;1.17;;;13.30;99.90;;;;;;5065725;28;20275;-59
2023/10/29 04:01:12;;;;;;;1.03;1.03;;;13.30;99.90;;;;;;5059424;28;20212;-59
2023/10/29 04:03:41;;;;;;;4.00;1.10;;;13.30;99.90;;;;;;5067483;28;20262;-59
2023/10/29 04:06:11;;;;;;;7.10;1.50;;;13.20;99.90;;;;;;5095536;28;20226;-59
2023/10/29 04:08:40;;;;;;;1.43;1.00;;;13.20;99.90;;;;;;5083604;28;20223;-59
2023/10/29 04:11:08;;;;;;;7.17;1.10;;;13.20;99.90;;;;;;5066167;28;20697;-59
2023/10/29 04:13:36;;;;;;;1.83;1.10;;;13.20;99.90;;;;;;5050362;28;20193;-58
2023/10/29 04:16:05;;;;;;;3.67;1.10;;;13.10;99.90;;;;;;5085510;28;20197;-58
2023/10/29 04:18:35;;;;;;;1.27;1.13;;;13.10;99.90;;;;;;5084380;28;20224;-59
2023/10/29 04:21:06;;;;;;;3.23;1.00;;;13.00;99.90;;;;;;5077498;28;20620;-58
2023/10/29 04:23:36;;;;;;;4.77;1.10;;;13.00;99.90;;;;;;5087171;28;20573;-59
2023/10/29 04:26:04;;;;;;;4.23;1.07;;;13.00;99.90;;;;;;5085530;28;20219;-59
2023/10/29 04:28:33;;;;;;;2.20;1.07;;;13.00;99.90;;;;;;5083321;28;20223;-60
2023/10/29 04:31:01;;;;;;;2.57;1.20;;;13.00;99.90;;;;;;5085550;28;20199;-58
2023/10/29 04:33:30;;;;;;;2.57;1.10;;;13.00;99.90;;;;;;5085511;28;20677;-59
2023/10/29 04:35:58;;;;;;;4.17;1.20;;;13.00;99.90;;;;;;5087006;28;20693;-59
2023/10/29 04:38:28;;;;;;;0.97;0.93;;;13.00;99.90;;;;;;5088080;28;20261;-59
2023/10/29 04:40:58;;;;;;;4.53;1.03;;;12.90;99.90;;;;;;5088617;28;20585;-58
2023/10/29 04:43:26;;;;;;;3.57;1.10;;;12.90;99.90;;;;;;5087403;28;20196;-59
2023/10/29 04:45:54;;;;;;;3.50;1.20;;;12.90;99.90;;;;;;5087377;28;20551;-59
2023/10/29 04:48:22;;;;;;;3.57;1.53;;;12.80;99.90;;;;;;5087624;28;20223;-59
2023/10/29 04:50:51;;;;;;;5.47;1.40;;;12.90;99.90;;;;;;5084505;28;20285;-60
2023/10/29 04:53:19;;;;;;;2.10;1.20;;;12.80;99.90;;;;;;5087669;28;20238;-59
2023/10/29 04:55:47;;;;;;;5.27;1.53;;;12.80;99.90;;;;;;5080642;28;20190;-59
2023/10/29 04:58:17;;;;;;;4.27;1.40;;;12.70;99.90;;;;;;5064478;28;20204;-60
2023/10/29 05:00:45;;;;;;;5.30;2.23;;;12.70;99.90;;;;;;5064671;28;20243;-59
2023/10/29 05:03:13;;;;;;;4.30;1.30;;;12.70;99.90;;;;;;5063680;28;20228;-60
2023/10/29 05:05:42;;;;;;;4.97;1.23;;;12.70;99.90;;;;;;5066272;28;20302;-59
2023/10/29 05:08:10;;;;;;;2.03;1.40;;;12.70;99.90;;;;;;5069104;28;20760;-59
2023/10/29 05:10:41;;;;;;;7.20;1.50;;;12.70;99.90;;;;;;5086824;28;20198;-58
2023/10/29 05:13:09;;;;;;;6.03;1.73;;;12.70;99.90;;;;;;5085999;28;20199;-59
2023/10/29 05:15:39;;;;;;;6.47;1.57;;;12.60;99.90;;;;;;5070184;28;20254;-58
2023/10/29 05:18:07;;;;;;;4.47;1.47;;;12.70;99.90;;;;;;5089495;28;20219;-58
2023/10/29 05:20:37;;;;;;;6.27;2.10;;;12.70;99.90;;;;;;5081968;28;20215;-58
2023/10/29 05:23:07;;;;;;;6.67;1.50;;;12.70;99.90;;;;;;5086534;28;20258;-60
2023/10/29 05:25:36;;;;;;;3.07;1.50;;;12.80;99.90;;;;;;5089567;28;20191;-60
2023/10/29 05:28:05;;;;;;;7.53;1.93;;;12.80;99.90;;;;;;5085361;28;20199;-60
2023/10/29 05:30:33;;;;;;;3.70;1.60;;;12.90;99.90;;;;;;5088724;28;20311;-60
2023/10/29 05:33:03;;;;;;;6.27;1.80;;;12.80;99.90;;;;;;5090337;28;20315;-60
2023/10/29 05:35:31;;;;;;;7.03;1.90;;;12.80;99.90;;;;;;5080125;28;20753;-60
2023/10/29 05:37:59;;;;;;;6.03;1.60;;;12.80;99.90;;;;;;5063777;28;20231;-60
2023/10/29 05:40:28;;;;;;;5.47;1.70;;;12.80;99.90;;;;;;5090294;28;20622;-59
2023/10/29 05:42:57;;;;;;;10.40;2.00;;;12.80;99.90;;;;;;5070613;28;20594;-60
2023/10/29 05:45:26;;;;;;;8.60;1.97;;;12.70;99.90;;;;;;5084823;28;20215;-60
2023/10/29 05:47:55;;;;;;;12.27;2.07;;;12.80;99.90;;;;;;5085957;28;20253;-60
2023/10/29 05:50:25;;;;;;;6.63;1.90;;;12.70;99.90;;;;;;5080464;28;20219;-60
2023/10/29 05:52:53;;;;;;;7.47;1.90;;;12.70;99.90;;;;;;5087842;28;20305;-59
2023/10/29 05:55:22;;;;;;;7.50;2.00;;;12.70;99.90;;;;;;5086277;28;20211;-60
2023/10/29 05:57:50;;;;;;;4.93;1.67;;;12.70;99.90;;;;;;5083518;28;20619;-60
2023/10/29 06:00:19;;;;;;;8.90;1.90;;;12.60;99.90;;;;;;5088171;28;20219;-60
2023/10/29 06:02:47;;;;;;;8.67;2.00;;;12.60;99.90;;;;;;5083741;28;20231;-59
2023/10/29 06:05:16;;;;;;;10.40;2.40;;;12.60;99.90;;;;;;5086193;28;20241;-60
2023/10/29 06:07:46;;;;;;;8.83;2.00;;;12.60;99.90;;;;;;5085596;28;20284;-59
2023/10/29 06:10:14;;;;;;;8.60;2.20;;;12.60;99.90;;;;;;5086728;28;20202;-60
2023/10/29 06:12:44;;;;;;;9.47;2.07;;;12.60;99.90;;;;;;5088613;28;20280;-60
2023/10/29 06:15:13;;;;;;;10.83;2.20;;;12.50;99.90;;;;;;5081703;28;20227;-59
2023/10/29 06:17:42;;;;;;;7.27;1.93;;;12.50;99.90;;;;;;5083673;28;20226;-60
2023/10/29 06:20:16;;;;;;;9.17;2.30;;;12.50;99.90;;;;;;5085428;28;20219;-59
2023/10/29 06:22:47;;;;;;;15.33;2.60;;;12.50;99.90;;;;;;5088329;28;20203;-59
2023/10/29 06:25:16;;;;;;;10.93;2.57;;;12.50;99.90;;;;;;5081626;28;20184;-59
2023/10/29 06:27:44;;;;;;;9.53;2.30;;;12.50;99.90;;;;;;5084094;28;20254;-60
2023/10/29 06:30:13;;;;;;;9.73;2.00;;;12.50;99.90;;;;;;5083286;28;20712;-59
2023/10/29 06:32:41;;;;;;;10.73;2.40;;;12.50;99.90;;;;;;5086418;28;20296;-59
2023/10/29 06:35:11;;;;;;;8.50;2.00;;;12.50;99.90;;;;;;5090945;28;20229;-60
2023/10/29 06:37:40;;;;;;;9.50;2.43;;;12.40;99.90;;;;;;5090169;28;20544;-59
2023/10/29 06:40:10;;;;;;;10.50;1.90;;;12.50;99.90;;;;;;5072494;28;20199;-59
2023/10/29 06:42:39;;;;;;;11.40;2.27;;;12.40;99.90;;;;;;5089764;28;20231;-59
2023/10/29 06:45:09;;;;;;;6.67;2.03;;;12.40;99.90;;;;;;5095659;28;20314;-60
2023/10/29 06:47:38;;;;;;;8.17;1.93;;;12.50;99.90;;;;;;5089552;28;20227;-60
2023/10/29 06:50:07;;;;;;;7.37;2.07;;;12.40;99.90;;;;;;5091035;28;20216;-60
2023/10/29 06:52:35;;;;;;;11.57;2.43;;;12.40;99.90;;;;;;5086213;28;20529;-59
2023/10/29 06:55:06;;;;;;;8.37;2.17;;;12.40;99.90;;;;;;5086765;28;20195;-60
2023/10/29 06:57:36;;;;;;;7.80;1.93;;;12.30;99.90;;;;;;5089455;28;20311;-60
2023/10/29 07:00:07;;;;;;;7.60;2.50;;;12.30;99.90;;;;;;5086552;28;20230;-59
2023/10/29 07:02:36;;;;;;;5.20;2.00;;;12.30;99.90;;;;;;5086767;28;20223;-60
2023/10/29 07:05:06;;;;;;;7.23;2.40;;;12.30;99.90;;;;;;5066978;28;20216;-59
2023/10/29 07:07:34;;;;;;;12.23;2.30;;;12.30;99.90;;;;;;5072279;28;20265;-59
2023/10/29 07:10:03;;;;;;;8.63;2.50;;;12.30;99.90;;;;;;5066179;28;20200;-59
2023/10/29 07:12:32;;;;;;;7.67;2.43;;;12.30;99.90;;;;;;5070244;28;20223;-60
2023/10/29 07:15:02;;;;;;;7.57;2.23;;;12.30;99.90;;;;;;5073915;28;20212;-59
2023/10/29 07:17:31;;;;;;;8.90;2.33;;;12.30;99.90;;;;;;5071501;28;20297;-60
2023/10/29 07:19:59;;;;;;;5.97;2.40;;;12.40;99.90;;;;;;5086223;28;20223;-59
2023/10/29 07:22:27;;;;;;;8.87;2.13;;;12.40;99.90;;;;;;5063805;28;20336;-59
2023/10/29 07:24:55;;;;;;;10.70;2.40;;;12.50;99.90;;;;;;5072242;28;20236;-59
2023/10/29 07:27:24;;;;;;;10.37;2.17;;;12.60;99.90;;;;;;5084949;28;20880;-58
2023/10/29 07:29:52;;;;;;;8.87;2.37;;;12.70;99.90;;;;;;5088141;28;20391;-59
2023/10/29 07:32:22;;;;;;;9.17;2.47;;;12.80;99.90;;;;;;5085553;28;20628;-59
2023/10/29 07:34:50;;;;;;;12.23;2.43;;;12.80;99.90;;;;;;5086487;28;20245;-60
2023/10/29 07:37:18;;;;;;;8.93;2.20;;;12.90;99.90;;;;;;5089753;28;20192;-59
2023/10/29 07:39:46;;;;;;;8.53;2.23;;;13.00;99.90;;;;;;5089721;28;20222;-59
2023/10/29 07:42:14;;;;;;;10.17;2.30;;;13.00;99.90;;;;;;5065847;28;20228;-59
2023/10/29 07:44:43;;;;;;;8.67;1.90;;;13.10;99.90;;;;;;5089260;28;20219;-60
2023/10/29 07:47:11;;;;;;;9.47;2.30;;;13.20;99.60;;;;;;5081338;28;20224;-60
2023/10/29 07:49:42;;;;;;;8.37;2.30;;;13.20;99.90;;;;;;5087477;28;20199;-60
2023/10/29 07:52:10;;;;;;;7.47;2.30;;;13.10;95.90;;;;;;5092301;28;20201;-60
2023/10/29 07:54:40;;;;;;;7.47;2.30;;;13.10;97.90;;;;;;5092472;28;20220;-61
2023/10/29 07:57:08;;;;;;;10.63;2.50;;;13.00;97.20;;;;;;5089258;28;20225;-60
2023/10/29 07:59:37;;;;;;;10.90;2.37;;;13.00;99.90;;;;;;5068883;28;20224;-60
2023/10/29 08:02:06;;;;;;;8.20;2.63;;;13.00;96.50;;;;;;5090987;28;20282;-60
2023/10/29 08:04:34;;;;;;;8.37;2.27;;;13.00;94.30;;;;;;5083629;28;20191;-60
2023/10/29 08:07:04;;;;;;;11.93;2.53;;;13.20;96.90;;;;;;5091213;28;20198;-59
2023/10/29 08:09:33;;;;;;;9.30;2.27;;;13.30;92.70;;;;;;5088283;28;20230;-59
2023/10/29 08:12:01;;;;;;;7.63;2.00;;;13.40;91.00;;;;;;5086122;28;20235;-58
2023/10/29 08:14:30;;;;;;;7.17;1.87;;;13.50;76.10;;;;;;5085865;28;20854;-58
2023/10/29 08:16:58;;;;;;;8.10;2.17;;;13.60;74.40;;;;;;5082986;28;20269;-59
2023/10/29 08:19:27;;;;;;;8.73;1.90;;;13.70;82.40;;;;;;5084841;28;20187;-60
2023/10/29 08:21:55;;;;;;;7.10;2.30;;;13.80;66.30;;;;;;5085843;28;20226;-59
2023/10/29 08:24:25;;;;;;;13.80;2.60;;;13.80;64.80;;;;;;5069669;28;20219;-59
2023/10/29 08:26:53;;;;;;;8.20;2.27;;;13.80;67.30;;;;;;5082155;28;20229;-58
2023/10/29 08:29:21;;;;;;;11.50;2.30;;;13.80;59.70;;;;;;5082222;28;20220;-59
2023/10/29 08:31:49;;;;;;;6.73;2.40;;;13.80;61.30;;;;;;5082771;28;20198;-58
2023/10/29 08:34:18;;;;;;;10.03;2.50;;;13.70;69.80;;;;;;5082524;28;20196;-58
2023/10/29 08:36:46;;;;;;;6.53;2.00;;;13.60;75.00;;;;;;5083681;28;20577;-58
2023/10/29 08:39:14;;;;;;;8.83;2.37;;;13.60;81.60;;;;;;5087719;28;20222;-59
2023/10/29 08:41:48;;;;;;;10.10;2.10;;;13.60;85.00;;;;;;5088050;28;20222;-59
2023/10/29 08:44:18;;;;;;;9.87;2.33;;;13.60;80.90;;;;;;5084452;28;20231;-58
2023/10/29 08:46:46;;;;;;;13.87;2.40;;;13.70;88.80;;;;;;5080743;28;20542;-58
2023/10/29 08:49:15;;;;;;;14.43;2.43;;;13.80;84.70;;;;;;5085787;28;20189;-58
2023/10/29 08:51:43;;;;;;;8.53;2.60;;;13.90;84.30;;;;;;5087456;28;20248;-58
2023/10/29 08:54:12;;;;;;;10.27;2.53;;;13.90;73.10;;;;;;5084414;28;20221;-58
2023/10/29 08:56:40;;;;;;;9.73;2.20;;;13.90;65.70;;;;;;5088478;28;20208;-59
2023/10/29 08:59:10;;;;;;;8.90;2.47;;;13.90;67.10;;;;;;5089096;28;20224;-58
2023/10/29 09:01:38;;;;;;;8.70;2.23;;;13.80;69.20;;;;;;5086626;28;20207;-58
2023/10/29 09:04:08;;;;;;;9.73;2.57;;;13.70;76.30;;;;;;5084019;28;20207;-58
2023/10/29 09:06:38;;;;;;;7.40;2.70;;;13.80;73.70;;;;;;5085012;28;20793;-59
2023/10/29 09:09:06;;;;;;;9.43;2.10;;;14.00;84.40;;;;;;5089449;28;21136;-59
2023/10/29 09:11:36;;;;;;;8.37;2.10;;;14.10;68.30;;;;;;5086744;28;20222;-58
2023/10/29 09:14:07;;;;;;;13.07;3.20;;;14.10;66.10;;;;;;5078927;28;20871;-59
2023/10/29 09:16:37;;;;;;;10.00;2.63;;;14.10;60.10;;;;;;5064773;28;20242;-59
2023/10/29 09:19:05;;;;;;;7.07;2.27;;;14.10;65.10;;;;;;5065922;28;20193;-59
2023/10/29 09:21:33;;;;;;;7.10;2.27;;;14.10;65.20;;;;;;5065321;28;20212;-58
2023/10/29 09:24:02;;;;;;;10.83;2.23;;;14.00;61.10;;;;;;5086903;28;20215;-58
2023/10/29 09:26:31;;;;;;;12.70;2.37;;;13.90;61.10;;;;;;5084230;28;20669;-58
2023/10/29 09:29:00;;;;;;;13.73;3.03;;;13.90;66.00;;;;;;5088917;28;20685;-58
2023/10/29 09:31:28;;;;;;;9.07;2.07;;;13.90;64.90;;;;;;5084136;28;20188;-58
2023/10/29 09:33:58;;;;;;;7.67;2.13;;;14.00;61.10;;;;;;5084355;28;20212;-58
2023/10/29 09:36:26;;;;;;;6.47;2.10;;;13.90;63.10;;;;;;5085428;28;20674;-58
2023/10/29 09:38:54;;;;;;;7.77;2.47;;;13.90;69.50;;;;;;5085650;28;20216;-58
2023/10/29 09:41:22;;;;;;;12.73;2.93;;;13.90;77.00;;;;;;5086701;28;20313;-60
2023/10/29 09:43:53;;;;;;;8.97;2.37;;;13.90;76.10;;;;;;5088440;28;20211;-59
2023/10/29 09:46:24;;;;;;;9.03;2.23;;;13.90;78.50;;;;;;5090592;28;20687;-59
2023/10/29 09:48:54;;;;;;;8.47;1.93;;;13.90;85.50;;;;;;5089106;28;20270;-59
2023/10/29 09:51:24;;;;;;;9.60;2.43;;;13.90;83.90;;;;;;5085194;28;20223;-59
2023/10/29 09:53:56;;;;;;;6.90;2.70;;;13.90;76.30;;;;;;5086957;28;20563;-59
2023/10/29 09:56:25;;;;;;;6.17;2.00;;;13.90;75.30;;;;;;5076788;28;20306;-59
2023/10/29 09:58:53;;;;;;;9.07;2.23;;;13.90;84.20;;;;;;5082251;28;20220;-59
2023/10/29 10:01:21;;;;;;;9.20;2.30;;;13.90;83.80;;;;;;5084456;28;20532;-59
2023/10/29 10:03:50;;;;;;;11.07;2.20;;;13.80;80.20;;;;;;5080347;28;20234;-59
2023/10/29 10:06:18;;;;;;;11.30;2.77;;;13.80;84.20;;;;;;5077658;28;20231;-59
2023/10/29 10:08:57;;;;;;;9.17;2.60;;;13.80;81.20;;;;;;5084094;28;20628;-59
2023/10/29 10:11:26;;;;;;;10.87;2.80;;;13.80;81.40;;;;;;5069123;28;20293;-59
2023/10/29 10:13:54;;;;;;;11.50;2.53;;;13.90;78.00;;;;;;5083698;28;20220;-58
2023/10/29 10:16:22;;;;;;;11.73;2.37;;;13.80;79.70;;;;;;5086540;28;20188;-59
2023/10/29 10:18:52;;;;;;;9.47;2.27;;;13.80;84.40;;;;;;5078058;28;20300;-59
2023/10/29 10:21:21;;;;;;;14.73;2.40;;;13.80;89.90;;;;;;5083163;28;20211;-59
2023/10/29 10:23:52;;;;;;;13.87;2.97;;;13.70;88.40;;;;;;5080471;28;20222;-59
2023/10/29 10:26:29;;;;;;;10.30;2.17;;;13.70;90.00;;;;;;5080789;28;20223;-59
2023/10/29 10:28:58;;;;;;;11.20;2.47;;;13.70;92.40;;;;;;5083885;28;20235;-59
2023/10/29 10:31:27;;;;;;;10.70;2.63;;;13.80;92.30;;;;;;5080715;28;20576;-59
2023/10/29 10:34:12;;;;;;;9.50;2.43;;;13.80;94.80;;;;;;5084060;28;20216;-59
2023/10/29 10:36:41;;;;;;;7.20;2.10;;;13.80;96.00;;;;;;5082675;28;20216;-60
2023/10/29 10:39:11;;;;;;;8.47;2.37;;;13.80;94.80;;;;;;5082662;28;20219;-59
2023/10/29 10:41:41;;;;;;;13.50;2.27;;;13.80;94.80;;;;;;5086210;28;20273;-59
2023/10/29 10:44:11;;;;;;;7.93;2.37;;;13.80;96.70;;;;;;5085042;28;20228;-59
2023/10/29 10:46:47;;;;;;;10.03;2.00;;;13.80;95.70;;;;;;5083780;28;20610;-60
2023/10/29 10:49:16;;;;;;;9.07;2.27;;;13.80;95.60;;;;;;5082795;28;20184;-59
2023/10/29 10:51:44;;;;;;;8.57;2.50;;;13.90;95.50;;;;;;5084108;28;20230;-60
2023/10/29 10:54:17;;;;;;;13.27;2.53;;;13.90;94.90;;;;;;5083152;28;20224;-59
2023/10/29 10:56:46;;;;;;;12.73;2.60;;;14.10;93.50;;;;;;5082067;28;20239;-59
2023/10/29 10:59:15;;;;;;;10.97;2.30;;;14.40;90.30;;;;;;5085358;28;20224;-60
2023/10/29 11:01:43;;;;;;;8.50;2.60;;;14.70;85.20;;;;;;5086974;28;20196;-59
2023/10/29 11:04:11;;;;;;;10.40;2.37;;;14.80;64.20;;;;;;5081478;28;20244;-59
2023/10/29 11:06:41;;;;;;;9.97;2.57;;;15.00;57.90;;;;;;5080161;28;20228;-59
2023/10/29 11:09:12;;;;;;;8.20;2.70;;;15.30;40.80;;;;;;5080072;28;20243;-59
2023/10/29 11:11:49;;;;;;;13.83;2.80;;;15.30;41.00;;;;;;5082575;28;20221;-59
2023/10/29 11:14:19;;;;;;;16.00;2.67;;;15.30;50.50;;;;;;5079066;28;20307;-59
2023/10/29 11:16:51;;;;;;;9.30;2.40;;;15.30;41.70;;;;;;5081048;28;20202;-60
2023/10/29 11:19:42;;;;;;;9.60;2.13;;;15.30;52.00;;;;;;5089159;28;20221;-59
2023/10/29 11:22:18;;;;;;;11.17;2.20;;;15.20;40.70;;;;;;5072879;28;20229;-59
2023/10/29 11:25:28;;;;;;;10.63;2.50;;;15.20;44.90;;;;;;5090864;28;20262;-60
2023/10/29 11:27:58;;;;;;;8.10;2.00;;;15.10;46.00;;;;;;5081560;28;20225;-59
2023/10/29 11:30:28;;;;;;;10.40;2.43;;;15.10;46.80;;;;;;5088883;28;20218;-59
2023/10/29 11:33:16;;;;;;;8.43;2.20;;;15.00;44.20;;;;;;5080849;28;20247;-59
2023/10/29 11:35:44;;;;;;;11.43;2.13;;;15.00;58.90;;;;;;5090430;28;20212;-60
2023/10/29 11:38:29;;;;;;;10.13;2.07;;;15.00;58.10;;;;;;5089535;28;20250;-59
2023/10/29 11:40:58;;;;;;;16.30;2.30;;;14.90;50.80;;;;;;5087444;28;20227;-59
2023/10/29 11:43:28;;;;;;;15.23;2.13;;;14.80;59.30;;;;;;5094055;28;20548;-59
2023/10/29 11:46:01;;;;;;;7.27;2.53;;;14.70;68.40;;;;;;5087751;28;20229;-59
2023/10/29 11:48:31;;;;;;;9.13;2.30;;;14.70;91.60;;;;;;5086441;28;20646;-59
2023/10/29 11:51:22;;;;;;;7.87;2.40;;;14.50;94.10;;;;;;5085086;28;20219;-59
2023/10/29 11:53:50;;;;;;;8.67;2.07;;;14.40;99.90;;;;;;5089759;28;20223;-59
2023/10/29 11:56:20;;;;;;;10.03;2.20;;;14.30;99.90;;;;;;5080295;28;20619;-59
2023/10/29 11:59:08;;;;;;;10.90;2.03;;;14.20;99.90;;;;;;5085141;28;20638;-59
2023/10/29 12:01:37;;;;;;;7.83;2.03;;;14.00;99.90;;;;;;5086443;28;20195;-59
2023/10/29 12:04:09;;;;;;;9.40;2.03;;;13.70;99.90;;;;;;5089975;28;20230;-60
2023/10/29 12:06:41;;;;;;;8.43;2.37;;;13.50;99.90;;;;;;5092072;28;20219;-59
2023/10/29 12:09:21;;;;;;;9.13;2.40;;;13.30;99.90;;;;;;5086053;28;20223;-59
2023/10/29 12:11:52;;;;;;;11.70;2.47;;;13.20;99.90;;;;;;5083793;28;20226;-59
2023/10/29 12:14:42;;;;;;;6.70;2.00;;;13.10;99.90;;;;;;5065596;28;20255;-60
2023/10/29 12:17:11;;;;;;;13.10;2.50;;;13.00;99.90;;;;;;5086839;28;20215;-60
2023/10/29 12:19:41;;;;;;;7.97;2.00;;;12.90;99.90;;;;;;5086506;28;20199;-59
2023/10/29 12:22:17;;;;;;;5.90;2.10;;;12.80;99.90;;;;;;5084730;28;20645;-60
2023/10/29 12:24:46;;;;;;;5.37;1.90;;;12.60;99.90;;;;;;5081855;28;20242;-60
2023/10/29 12:27:16;;;;;;;11.47;2.57;;;12.50;99.90;;;;;;5084266;28;20372;-59
2023/10/29 12:29:45;;;;;;;6.53;2.20;;;12.30;99.90;;;;;;5088365;28;20216;-60
2023/10/29 12:32:18;;;;;;;8.77;2.23;;;12.30;99.90;;;;;;5080893;28;20276;-60
2023/10/29 12:34:50;;;;;;;4.90;1.60;;;12.20;99.90;;;;;;5085107;28;20200;-59
2023/10/29 12:37:26;;;;;;;6.73;1.80;;;12.10;99.90;;;;;;5085702;28;20199;-60
2023/10/29 12:39:56;;;;;;;4.17;1.70;;;12.10;99.90;;;;;;5080112;28;20219;-59
2023/10/29 12:42:48;;;;;;;8.13;2.07;;;12.00;99.90;;;;;;5076441;28;20656;-60
2023/10/29 12:45:25;;;;;;;7.87;2.20;;;12.00;99.90;;;;;;5090742;28;20215;-60
2023/10/29 12:48:08;;;;;;;3.43;2.27;;;12.00;99.90;;;;;;5080861;28;20215;-59
2023/10/29 12:50:47;;;;;;;8.77;2.10;;;12.00;99.90;;;;;;5084182;28;20314;-59
2023/10/29 12:53:24;;;;;;;6.47;2.00;;;12.10;99.90;;;;;;5082910;28;20223;-59
2023/10/29 12:55:52;;;;;;;10.37;2.17;;;12.30;99.90;;;;;;5085064;28;20246;-59
2023/10/29 12:58:21;;;;;;;5.57;1.90;;;12.50;99.90;;;;;;5085744;28;20188;-59